PAGA

Edward G Pitka Sr Airport

Galena, Alaska, USA
PAGA 201739Z 2018/2118 02004KT P6SM FEW100 SCT200 FM202100 06012G18KT P6SM FEW100 BKN200 FM210800 05009KT P6SM SKC
Issued Valid From Valid To
Apr-20 @ 17:39 UTC
(52 minutes ago)
Apr-20 @ 18:00 UTC
(31 minutes ago)
Apr-21 @ 18:00 UTC
(in 23 hours)
Apr-20 @ 18:00 to Apr-20 @ 21:00
PAGA 201739Z 2018/2118 02004KT P6SM FEW100 SCT200
Wind Visibility Clouds
20° at 4 knots Greater than 6 miles
  • Few at 10,000' AGL
  • Scattered at 20,000' AGL
From Apr-20 @ 21:00 to Apr-21 @ 08:00
FM202100 06012G18KT P6SM FEW100 BKN200
Wind Visibility Clouds
60° at 12 knots
 Gusting to 18 knots
Greater than 6 miles
  • Few at 10,000' AGL
  • Broken at 20,000' AGL
From Apr-21 @ 08:00 to Apr-21 @ 18:00
FM210800 05009KT P6SM SKC
Wind Visibility Clouds
50° at 9 knots Greater than 6 miles
  • Clear skies
PAGA 201739Z 2018/2118 02004KT P6SM FEW100 SCT200 FM202100 06012G18KT P6SM FEW100 BKN200 FM210800 05009KT P6SM SKC
Issued Apr-20 @ 17:39 UTC
(52 minutes ago)
Valid From Apr-20 @ 18:00 UTC
(31 minutes ago)
Valid To Apr-21 @ 18:00 UTC
(in 23 hours)
Apr-20 @ 18:00 - Apr-20 @ 21:00
Wind Visibility
20° at 4 knots Greater than 6 miles
Clouds
  • Few at 10,000' AGL
  • Scattered at 20,000' AGL
From Apr-20 @ 21:00 - Apr-21 @ 08:00
Wind Visibility
60° at 12 knots
 Gusting to 18 knots
Greater than 6 miles
Clouds
  • Few at 10,000' AGL
  • Broken at 20,000' AGL
From Apr-21 @ 08:00 - Apr-21 @ 18:00
Wind Visibility
50° at 9 knots Greater than 6 miles
Clouds
  • Clear skies